createdAt,value
2023-03-28T00:01:24.780Z,43.16
2023-03-28T00:04:11.733Z,42.91
2023-03-28T00:06:57.540Z,43.11
2023-03-28T00:09:43.505Z,42.92
2023-03-28T00:12:29.553Z,42.83
2023-03-28T00:15:15.487Z,43.18
2023-03-28T00:18:01.581Z,43.03
2023-03-28T00:20:48.419Z,42.75
2023-03-28T00:23:35.955Z,42.71
2023-03-28T00:26:24.943Z,43.33
2023-03-28T00:29:21.401Z,42.25
2023-03-28T00:32:08.257Z,42.71
2023-03-28T00:34:54.029Z,42.63
2023-03-28T00:37:41.928Z,42.72
2023-03-28T00:40:30.887Z,42.65
2023-03-28T00:43:16.585Z,42.59
2023-03-28T00:46:09.127Z,42.49
2023-03-28T00:49:05.991Z,42.66
2023-03-28T00:52:01.946Z,42.01
2023-03-28T00:54:48.326Z,42.57
2023-03-28T00:57:38.356Z,43.04
2023-03-28T01:00:24.896Z,43.11
2023-03-28T01:03:13.945Z,42.86
2023-03-28T01:06:04.616Z,42.85
2023-03-28T01:08:56.747Z,42.51
2023-03-28T01:11:43.837Z,42.70
2023-03-28T01:14:32.899Z,42.27
2023-03-28T01:17:21.263Z,42.47
2023-03-28T01:20:10.524Z,42.36
2023-03-28T01:23:21.046Z,41.35
2023-03-28T01:26:34.719Z,41.24
2023-03-28T01:29:20.826Z,41.84
2023-03-28T01:32:28.922Z,41.25
2023-03-28T01:35:50.767Z,42.03
2023-03-28T01:38:51.693Z,41.46
2023-03-28T01:41:43.798Z,42.11
2023-03-28T01:44:43.920Z,41.81
2023-03-28T01:48:02.401Z,41.86
2023-03-28T01:50:54.245Z,41.88
2023-03-28T01:54:04.176Z,42.31
2023-03-28T01:57:31.514Z,41.60
2023-03-28T02:00:43.376Z,42.10
2023-03-28T02:03:35.133Z,42.44
2023-03-28T02:06:28.071Z,41.87
2023-03-28T02:09:17.921Z,41.85
2023-03-28T02:12:38.566Z,42.01
2023-03-28T02:15:27.719Z,41.84
2023-03-28T02:18:53.019Z,42.19
2023-03-28T02:21:52.328Z,41.64
2023-03-28T02:24:56.421Z,42.22
2023-03-28T02:28:09.515Z,41.95
2023-03-28T02:31:08.169Z,41.58
2023-03-28T02:34:01.805Z,41.28
2023-03-28T02:42:36.539Z,41.53
2023-03-28T02:51:30.274Z,40.58
2023-03-28T02:56:00.391Z,40.96
2023-03-28T03:00:40.945Z,40.96
2023-03-28T03:05:11.454Z,40.95
2023-03-28T03:08:31.658Z,40.84
2023-03-28T03:11:17.555Z,41.43
2023-03-28T03:14:05.629Z,41.71
2023-03-28T03:17:34.693Z,41.55
2023-03-28T03:34:15.844Z,41.05
2023-03-28T03:38:47.443Z,40.43
2023-03-28T03:51:55.396Z,40.15
2023-03-28T03:54:41.380Z,41.05
2023-03-28T03:57:27.274Z,40.82
2023-03-28T04:19:54.080Z,40.54
2023-03-28T04:28:17.463Z,39.06
2023-03-28T04:57:08.155Z,38.77
2023-03-28T05:00:00.061Z,40.29
2023-03-28T05:03:05.192Z,39.27
2023-03-28T05:10:28.579Z,39.25
2023-03-28T05:13:21.180Z,39.65
2023-03-28T05:29:56.086Z,38.65
2023-03-28T05:32:42.163Z,39.28
2023-03-28T05:35:30.504Z,39.29
2023-03-28T05:48:55.259Z,34.82
2023-03-28T05:53:24.339Z,34.63
2023-03-28T05:57:54.326Z,35.25
2023-03-28T06:00:46.709Z,37.93
2023-03-28T06:03:33.098Z,37.81
2023-03-28T06:06:24.606Z,38.01
2023-03-28T06:13:56.900Z,38.10
2023-03-28T06:16:42.501Z,38.18
2023-03-28T06:19:28.195Z,37.85
2023-03-28T06:27:00.006Z,38.32
2023-03-28T06:29:45.958Z,38.05
2023-03-28T06:41:52.720Z,37.28
2023-03-28T06:44:47.923Z,36.53
2023-03-28T06:47:52.396Z,37.32
2023-03-28T06:50:50.281Z,36.69
2023-03-28T06:53:49.908Z,34.12
2023-03-28T06:56:40.632Z,36.53
2023-03-28T06:59:26.950Z,36.47
2023-03-28T07:02:49.748Z,34.75
2023-03-28T07:05:42.804Z,36.53
2023-03-28T07:09:44.750Z,34.91
2023-03-28T07:12:31.893Z,36.53
2023-03-28T07:15:19.446Z,35.77
2023-03-28T07:19:11.435Z,35.28
2023-03-28T07:22:01.020Z,36.32
2023-03-28T07:24:46.851Z,35.90
2023-03-28T07:27:33.303Z,36.11
2023-03-28T07:30:20.010Z,35.50
2023-03-28T07:33:18.581Z,33.81
2023-03-28T07:36:15.076Z,35.10
2023-03-28T07:39:03.284Z,36.09
2023-03-28T07:41:49.376Z,35.65
2023-03-28T07:44:36.067Z,34.90
2023-03-28T07:47:22.852Z,35.61
2023-03-28T07:50:09.526Z,35.59
2023-03-28T07:52:57.920Z,35.81
2023-03-28T07:55:54.489Z,35.28
2023-03-28T07:59:22.152Z,33.03
2023-03-28T08:02:15.937Z,34.98
2023-03-28T08:05:01.938Z,35.24
2023-03-28T08:07:47.701Z,34.84
2023-03-28T08:10:34.219Z,35.16
2023-03-28T08:13:22.637Z,35.16
2023-03-28T08:16:09.586Z,34.81
2023-03-28T08:19:07.550Z,35.06
2023-03-28T08:22:34.548Z,34.08
2023-03-28T08:26:04.908Z,34.84
2023-03-28T08:28:54.830Z,34.87
2023-03-28T08:31:41.661Z,35.17
2023-03-28T08:34:32.370Z,34.83
2023-03-28T08:37:21.909Z,34.72
2023-03-28T08:40:16.202Z,34.05
2023-03-28T08:43:06.598Z,34.29
2023-03-28T08:45:56.569Z,34.87
2023-03-28T08:48:44.737Z,34.54
2023-03-28T08:51:40.776Z,33.87
2023-03-28T08:55:10.957Z,31.15
2023-03-28T08:57:57.944Z,34.26
2023-03-28T09:00:43.481Z,34.28
2023-03-28T09:03:30.360Z,34.49
2023-03-28T09:06:28.723Z,34.33
2023-03-28T09:09:34.625Z,31.64
2023-03-28T09:12:59.744Z,33.03
2023-03-28T09:16:23.233Z,33.05
2023-03-28T09:19:49.127Z,30.53
2023-03-28T09:23:39.420Z,31.81
2023-03-28T09:27:21.818Z,31.21
2023-03-28T09:30:20.790Z,32.83
2023-03-28T09:33:12.714Z,32.01
2023-03-28T09:35:59.144Z,33.62
2023-03-28T09:38:52.624Z,32.14
2023-03-28T09:42:27.392Z,29.92
2023-03-28T09:46:05.224Z,29.37
2023-03-28T09:49:18.210Z,31.20
2023-03-28T09:52:18.813Z,32.56
2023-03-28T10:06:02.086Z,31.96
2023-03-28T10:08:52.377Z,33.18
2023-03-28T10:11:58.677Z,33.14
2023-03-28T10:14:53.041Z,32.96
2023-03-28T10:18:20.370Z,30.92
2023-03-28T10:21:23.987Z,31.36
2023-03-28T10:24:28.622Z,32.61
2023-03-28T10:27:24.034Z,32.71
2023-03-28T10:30:21.668Z,33.16
2023-03-28T10:33:44.044Z,31.62
2023-03-28T10:36:58.555Z,33.24
2023-03-28T10:40:07.656Z,33.62
2023-03-28T10:43:15.963Z,34.79
2023-03-28T10:46:33.292Z,34.86
2023-03-28T10:49:43.454Z,32.84
2023-03-28T10:52:52.091Z,30.94
2023-03-28T10:55:54.344Z,31.18
2023-03-28T10:59:17.851Z,32.91
2023-03-28T11:02:24.122Z,32.41
2023-03-28T11:05:28.803Z,32.47
2023-03-28T11:08:38.344Z,31.27
2023-03-28T11:11:41.221Z,30.23
2023-03-28T11:14:46.508Z,29.33
2023-03-28T11:17:41.669Z,30.44
2023-03-28T11:20:56.405Z,32.78
2023-03-28T11:24:02.414Z,28.77
2023-03-28T11:27:22.720Z,29.52
2023-03-28T11:30:24.653Z,30.15
2023-03-28T11:33:32.166Z,30.57
2023-03-28T11:36:29.619Z,31.30
2023-03-28T11:39:42.665Z,31.60
2023-03-28T11:42:37.225Z,31.57
2023-03-28T11:45:43.309Z,32.13
2023-03-28T11:48:49.731Z,33.94
2023-03-28T11:51:53.964Z,34.62
2023-03-28T11:54:44.183Z,34.84
2023-03-28T11:58:00.403Z,29.94
2023-03-28T12:01:00.410Z,31.79
2023-03-28T12:03:55.780Z,28.43
2023-03-28T12:06:59.714Z,27.87
2023-03-28T12:10:08.234Z,26.29
2023-03-28T12:13:08.390Z,29.59
2023-03-28T12:16:04.648Z,29.44
2023-03-28T12:19:06.313Z,30.25
2023-03-28T12:22:18.106Z,31.78
2023-03-28T12:25:10.696Z,33.47
2023-03-28T12:28:23.214Z,32.54
2023-03-28T12:31:31.825Z,32.00
2023-03-28T12:34:39.357Z,31.25
2023-03-28T12:37:48.594Z,28.32
2023-03-28T12:41:04.593Z,29.13
2023-03-28T12:43:57.411Z,28.54
2023-03-28T12:47:11.765Z,25.62
2023-03-28T12:50:08.651Z,28.48
2023-03-28T12:52:56.712Z,29.82
2023-03-28T12:55:52.279Z,29.93
2023-03-28T12:58:43.142Z,30.76
2023-03-28T13:01:48.441Z,29.49
2023-03-28T13:05:16.246Z,26.28
2023-03-28T13:08:25.088Z,29.08
2023-03-28T13:11:17.086Z,21.33
2023-03-28T13:14:12.229Z,27.83
2023-03-28T13:17:25.520Z,24.10
2023-03-28T13:20:17.609Z,26.01
2023-03-28T13:23:07.370Z,24.82
2023-03-28T13:25:55.466Z,24.76
2023-03-28T13:28:44.541Z,26.20
2023-03-28T13:31:32.949Z,26.61
2023-03-28T13:34:23.832Z,26.80
2023-03-28T13:37:41.912Z,25.38
2023-03-28T13:40:51.347Z,27.30
2023-03-28T13:43:43.695Z,29.83
2023-03-28T13:46:39.046Z,26.83
2023-03-28T13:49:30.985Z,24.01
2023-03-28T13:52:20.332Z,26.63
2023-03-28T13:55:24.761Z,25.36
2023-03-28T13:58:13.947Z,27.05
2023-03-28T14:01:09.384Z,27.36
2023-03-28T14:03:56.457Z,28.60
2023-03-28T14:06:42.463Z,27.66
2023-03-28T14:09:28.481Z,26.87
2023-03-28T14:12:14.906Z,25.35
2023-03-28T14:15:01.577Z,23.88
2023-03-28T14:17:50.093Z,23.06
2023-03-28T14:20:38.345Z,23.84
2023-03-28T14:23:32.098Z,24.37
2023-03-28T14:26:22.634Z,25.25
2023-03-28T14:29:14.957Z,26.36
2023-03-28T14:32:02.150Z,28.14
2023-03-28T14:34:48.036Z,29.00
2023-03-28T14:37:33.817Z,29.21
2023-03-28T14:40:41.195Z,28.66
2023-03-28T14:43:29.344Z,27.76
2023-03-28T14:46:15.607Z,27.06
2023-03-28T14:49:03.841Z,26.08
2023-03-28T14:51:58.453Z,25.69
2023-03-28T14:54:48.261Z,25.54
2023-03-28T14:57:37.783Z,25.84
2023-03-28T15:00:30.117Z,26.73
2023-03-28T15:03:17.976Z,27.34
2023-03-28T15:06:04.075Z,27.76
2023-03-28T15:08:50.747Z,28.12
2023-03-28T15:11:38.097Z,28.50
2023-03-28T15:14:41.352Z,29.07
2023-03-28T15:17:26.988Z,28.96
2023-03-28T15:20:17.201Z,29.55
2023-03-28T15:23:11.802Z,29.71
2023-03-28T15:26:01.988Z,30.06
2023-03-28T15:28:48.979Z,29.56
2023-03-28T15:31:38.827Z,30.03
2023-03-28T15:34:27.565Z,29.91
2023-03-28T15:37:21.868Z,30.87
2023-03-28T15:40:29.328Z,32.00
2023-03-28T15:43:27.305Z,30.69
2023-03-28T15:46:14.326Z,30.65
2023-03-28T15:49:01.409Z,31.17
2023-03-28T15:51:56.540Z,31.72
2023-03-28T15:54:44.058Z,31.73
2023-03-28T15:57:30.896Z,31.67
2023-03-28T16:00:38.366Z,32.14
2023-03-28T16:03:24.108Z,31.67
2023-03-28T16:06:31.624Z,31.11
2023-03-28T16:09:23.474Z,31.09
2023-03-28T16:12:13.344Z,31.00
2023-03-28T16:15:03.279Z,30.40
2023-03-28T16:18:00.537Z,30.63
2023-03-28T16:20:56.607Z,31.04
2023-03-28T16:23:42.611Z,31.03
2023-03-28T16:26:28.525Z,30.57
2023-03-28T16:29:14.335Z,30.97
2023-03-28T16:32:00.319Z,30.66
2023-03-28T16:34:46.240Z,30.66
2023-03-28T16:37:32.224Z,30.73
2023-03-28T16:40:18.376Z,30.29
2023-03-28T16:43:04.173Z,29.97
2023-03-28T16:45:50.486Z,29.79
2023-03-28T16:48:36.564Z,30.46
2023-03-28T16:51:22.383Z,30.44
2023-03-28T16:54:10.178Z,31.21
2023-03-28T16:56:56.342Z,32.18
2023-03-28T16:59:42.294Z,32.72
2023-03-28T17:02:28.404Z,33.24
2023-03-28T17:05:15.641Z,33.54
2023-03-28T17:08:02.192Z,34.22
2023-03-28T17:10:48.094Z,35.55
2023-03-28T17:13:34.628Z,35.24
2023-03-28T17:16:21.771Z,34.57
2023-03-28T17:19:07.908Z,35.24
2023-03-28T17:21:55.698Z,35.50
2023-03-28T17:24:41.764Z,35.81
2023-03-28T17:27:27.843Z,36.14
2023-03-28T17:30:13.816Z,36.47
2023-03-28T17:32:59.886Z,36.37
2023-03-28T17:35:46.092Z,37.20
2023-03-28T17:38:32.441Z,36.76
2023-03-28T17:41:18.860Z,36.37
2023-03-28T17:44:06.605Z,36.53
2023-03-28T17:46:54.412Z,36.21
2023-03-28T17:49:40.775Z,36.40
2023-03-28T17:52:29.937Z,36.83
2023-03-28T17:55:16.108Z,36.75
2023-03-28T17:58:02.676Z,37.48
2023-03-28T18:00:48.703Z,37.91
2023-03-28T18:03:34.545Z,37.54
2023-03-28T18:06:38.023Z,37.85
2023-03-28T18:09:23.815Z,38.42
2023-03-28T18:12:09.643Z,39.58
2023-03-28T18:14:58.918Z,38.12
2023-03-28T18:17:47.478Z,38.91
2023-03-28T18:20:33.388Z,37.69
2023-03-28T18:23:19.170Z,38.69
2023-03-28T18:26:05.349Z,37.96
2023-03-28T18:28:51.194Z,38.49
2023-03-28T18:31:39.033Z,38.88
2023-03-28T18:34:24.970Z,38.80
2023-03-28T18:37:12.322Z,38.48
2023-03-28T18:39:58.036Z,38.64
2023-03-28T18:42:43.722Z,38.15
2023-03-28T18:45:29.527Z,38.26
2023-03-28T18:48:18.537Z,38.76
2023-03-28T18:51:06.372Z,38.45
2023-03-28T18:53:53.994Z,38.16
2023-03-28T18:56:40.205Z,39.06
2023-03-28T18:59:26.477Z,39.07
2023-03-28T19:02:14.002Z,38.90
2023-03-28T19:05:00.478Z,39.02
2023-03-28T19:07:46.408Z,38.79
2023-03-28T19:10:32.040Z,39.03
2023-03-28T19:13:17.901Z,39.05
2023-03-28T19:16:07.165Z,38.88
2023-03-28T19:18:52.789Z,38.92
2023-03-28T19:21:38.665Z,38.58
2023-03-28T19:24:24.305Z,38.51
2023-03-28T19:27:10.032Z,38.87
2023-03-28T19:29:57.056Z,39.26
2023-03-28T19:32:42.960Z,39.13
2023-03-28T19:35:28.740Z,39.12
2023-03-28T19:38:14.699Z,38.66
2023-03-28T19:41:02.153Z,38.82
2023-03-28T19:43:49.282Z,38.70
2023-03-28T19:46:37.157Z,38.62
2023-03-28T19:49:24.644Z,38.89
2023-03-28T19:52:11.086Z,39.27
2023-03-28T19:54:56.872Z,39.17
2023-03-28T19:57:42.631Z,38.87
2023-03-28T20:00:28.442Z,39.39
2023-03-28T20:03:14.433Z,39.18
2023-03-28T20:06:20.763Z,39.19
2023-03-28T20:09:07.628Z,39.41
2023-03-28T20:11:53.971Z,38.98
2023-03-28T20:14:39.671Z,39.00
2023-03-28T20:17:25.291Z,39.26
2023-03-28T20:20:13.671Z,39.38
2023-03-28T20:23:00.392Z,39.01
2023-03-28T20:25:47.671Z,38.93
2023-03-28T20:28:33.925Z,39.09
2023-03-28T20:31:19.662Z,38.75
2023-03-28T20:34:05.920Z,38.94
2023-03-28T20:36:52.162Z,38.68
2023-03-28T20:39:38.614Z,39.43
2023-03-28T20:42:30.120Z,39.09
2023-03-28T20:45:22.272Z,39.35
2023-03-28T20:48:11.112Z,39.57
2023-03-28T20:50:57.285Z,38.94
2023-03-28T20:53:45.295Z,39.24
2023-03-28T20:56:31.890Z,38.92
2023-03-28T20:59:17.869Z,39.37
2023-03-28T21:02:05.251Z,39.10
2023-03-28T21:04:51.946Z,39.59
2023-03-28T21:07:37.665Z,39.10
2023-03-28T21:10:23.388Z,39.41
2023-03-28T21:13:09.185Z,39.17
2023-03-28T21:15:55.525Z,39.01
2023-03-28T21:18:41.611Z,39.79
2023-03-28T21:21:30.467Z,39.40
2023-03-28T21:24:17.863Z,39.62
2023-03-28T21:27:03.599Z,39.46
2023-03-28T21:29:49.288Z,39.42
2023-03-28T21:32:35.988Z,39.57
2023-03-28T21:35:22.340Z,39.21
2023-03-28T21:38:08.033Z,39.28
2023-03-28T21:40:53.753Z,39.29
2023-03-28T21:43:40.239Z,39.75
2023-03-28T21:46:26.539Z,39.63
2023-03-28T21:49:12.691Z,39.14
2023-03-28T21:51:58.498Z,39.63
2023-03-28T21:54:44.576Z,39.59
2023-03-28T21:57:31.250Z,39.51
2023-03-28T22:00:20.650Z,39.18
2023-03-28T22:03:06.610Z,39.46
2023-03-28T22:05:53.452Z,39.41
2023-03-28T22:08:40.582Z,39.33
2023-03-28T22:11:28.250Z,39.18
2023-03-28T22:14:14.265Z,39.11
2023-03-28T22:17:02.868Z,39.52
2023-03-28T22:19:50.039Z,39.10
2023-03-28T22:22:36.194Z,39.06
2023-03-28T22:25:24.725Z,39.41
2023-03-28T22:28:13.101Z,39.18
2023-03-28T22:30:59.048Z,39.23
2023-03-28T22:33:45.284Z,39.51
2023-03-28T22:36:31.405Z,39.33
2023-03-28T22:39:21.748Z,38.97
2023-03-28T22:42:08.623Z,39.64
2023-03-28T22:44:54.338Z,39.38
2023-03-28T22:47:40.220Z,39.40
2023-03-28T22:50:27.730Z,39.31
2023-03-28T22:53:14.627Z,39.18
2023-03-28T22:56:00.815Z,39.59
2023-03-28T22:58:47.135Z,39.40
2023-03-28T23:01:33.820Z,39.59
2023-03-28T23:04:19.560Z,39.68
2023-03-28T23:07:06.647Z,39.86
2023-03-28T23:09:52.433Z,39.78
2023-03-28T23:12:38.612Z,39.49
2023-03-28T23:15:24.640Z,39.95
2023-03-28T23:18:10.893Z,39.89
2023-03-28T23:20:57.488Z,39.37
2023-03-28T23:23:43.809Z,40.22
2023-03-28T23:26:29.493Z,40.00
2023-03-28T23:29:15.400Z,40.39
2023-03-28T23:32:01.045Z,39.82
2023-03-28T23:34:46.826Z,40.26
2023-03-28T23:37:34.523Z,40.19
2023-03-28T23:40:20.857Z,40.26
2023-03-28T23:43:07.359Z,40.63
2023-03-28T23:45:53.409Z,40.47
2023-03-28T23:48:39.144Z,41.06
2023-03-28T23:51:24.890Z,41.20
2023-03-28T23:54:12.601Z,40.86
2023-03-28T23:56:58.266Z,41.32
2023-03-28T23:59:43.916Z,41.24
